sensor_id;sensor_type;location;lat;lon;timestamp;temperature;humidity
34492;DHT22;20737;49.908;8.126;2023-03-26T00:02:24;7.30;99.90
34492;DHT22;20737;49.908;8.126;2023-03-26T00:04:54;7.30;99.90
34492;DHT22;20737;49.908;8.126;2023-03-26T00:07:20;7.30;99.90
34492;DHT22;20737;49.908;8.126;2023-03-26T00:09:47;7.20;99.90
34492;DHT22;20737;49.908;8.126;2023-03-26T00:12:14;7.20;99.90
34492;DHT22;20737;49.908;8.126;2023-03-26T00:14:40;7.20;99.90
34492;DHT22;20737;49.908;8.126;2023-03-26T00:17:08;7.10;99.90
34492;DHT22;20737;49.908;8.126;2023-03-26T00:19:36;7.10;99.90
34492;DHT22;20737;49.908;8.126;2023-03-26T00:22:03;7.00;99.90
34492;DHT22;20737;49.908;8.126;2023-03-26T00:24:30;7.00;99.90
34492;DHT22;20737;49.908;8.126;2023-03-26T00:26:56;7.00;99.90
34492;DHT22;20737;49.908;8.126;2023-03-26T00:29:24;7.00;99.90
34492;DHT22;20737;49.908;8.126;2023-03-26T00:31:52;6.90;99.90
34492;DHT22;20737;49.908;8.126;2023-03-26T00:34:19;6.90;99.90
34492;DHT22;20737;49.908;8.126;2023-03-26T00:36:48;6.90;99.90
34492;DHT22;20737;49.908;8.126;2023-03-26T00:39:19;6.90;99.90
34492;DHT22;20737;49.908;8.126;2023-03-26T00:41:46;6.90;99.90
34492;DHT22;20737;49.908;8.126;2023-03-26T00:44:13;6.90;99.90
34492;DHT22;20737;49.908;8.126;2023-03-26T00:46:40;6.90;99.90
34492;DHT22;20737;49.908;8.126;2023-03-26T00:49:07;6.80;99.90
34492;DHT22;20737;49.908;8.126;2023-03-26T00:51:35;6.70;99.90
34492;DHT22;20737;49.908;8.126;2023-03-26T00:54:04;6.60;99.90
34492;DHT22;20737;49.908;8.126;2023-03-26T00:56:32;6.60;99.90
34492;DHT22;20737;49.908;8.126;2023-03-26T00:58:59;6.60;99.90
34492;DHT22;20737;49.908;8.126;2023-03-26T01:01:27;6.50;99.90
34492;DHT22;20737;49.908;8.126;2023-03-26T01:03:56;6.60;99.90
34492;DHT22;20737;49.908;8.126;2023-03-26T01:06:26;6.50;99.90
34492;DHT22;20737;49.908;8.126;2023-03-26T01:09:01;6.50;99.90
34492;DHT22;20737;49.908;8.126;2023-03-26T01:11:31;6.40;99.90
34492;DHT22;20737;49.908;8.126;2023-03-26T01:14:00;6.40;99.90
34492;DHT22;20737;49.908;8.126;2023-03-26T01:16:34;6.30;99.90
34492;DHT22;20737;49.908;8.126;2023-03-26T01:19:03;6.30;99.90
34492;DHT22;20737;49.908;8.126;2023-03-26T01:21:34;6.30;99.90
34492;DHT22;20737;49.908;8.126;2023-03-26T01:24:05;6.20;99.90
34492;DHT22;20737;49.908;8.126;2023-03-26T01:26:40;6.20;99.90
34492;DHT22;20737;49.908;8.126;2023-03-26T01:29:22;6.20;99.90
34492;DHT22;20737;49.908;8.126;2023-03-26T01:31:58;6.20;99.90
34492;DHT22;20737;49.908;8.126;2023-03-26T01:34:37;6.10;99.90
34492;DHT22;20737;49.908;8.126;2023-03-26T01:37:13;6.20;99.90
34492;DHT22;20737;49.908;8.126;2023-03-26T01:39:47;6.30;99.90
34492;DHT22;20737;49.908;8.126;2023-03-26T01:42:20;6.40;99.90
34492;DHT22;20737;49.908;8.126;2023-03-26T01:44:54;6.50;99.90
34492;DHT22;20737;49.908;8.126;2023-03-26T01:47:22;6.60;99.90
34492;DHT22;20737;49.908;8.126;2023-03-26T01:49:49;6.70;99.90
34492;DHT22;20737;49.908;8.126;2023-03-26T01:52:19;6.70;99.90
34492;DHT22;20737;49.908;8.126;2023-03-26T01:54:48;6.70;99.90
34492;DHT22;20737;49.908;8.126;2023-03-26T01:57:21;6.80;99.90
34492;DHT22;20737;49.908;8.126;2023-03-26T02:00:13;6.80;99.90
34492;DHT22;20737;49.908;8.126;2023-03-26T02:02:51;6.80;99.90
34492;DHT22;20737;49.908;8.126;2023-03-26T02:05:24;6.80;99.90
34492;DHT22;20737;49.908;8.126;2023-03-26T02:07:55;6.80;99.90
34492;DHT22;20737;49.908;8.126;2023-03-26T02:10:28;6.80;99.90
34492;DHT22;20737;49.908;8.126;2023-03-26T02:12:56;6.90;99.90
34492;DHT22;20737;49.908;8.126;2023-03-26T02:15:23;6.90;99.90
34492;DHT22;20737;49.908;8.126;2023-03-26T02:17:50;7.00;99.90
34492;DHT22;20737;49.908;8.126;2023-03-26T02:20:19;7.10;99.90
34492;DHT22;20737;49.908;8.126;2023-03-26T02:22:46;7.10;99.90
34492;DHT22;20737;49.908;8.126;2023-03-26T02:25:14;7.20;99.90
34492;DHT22;20737;49.908;8.126;2023-03-26T02:27:43;7.20;99.90
34492;DHT22;20737;49.908;8.126;2023-03-26T02:30:13;7.10;99.90
34492;DHT22;20737;49.908;8.126;2023-03-26T02:32:40;7.20;99.90
34492;DHT22;20737;49.908;8.126;2023-03-26T02:35:08;7.20;99.90
34492;DHT22;20737;49.908;8.126;2023-03-26T02:37:35;7.20;99.90
34492;DHT22;20737;49.908;8.126;2023-03-26T02:40:03;7.20;99.90
34492;DHT22;20737;49.908;8.126;2023-03-26T02:42:34;7.20;99.90
34492;DHT22;20737;49.908;8.126;2023-03-26T02:45:03;7.20;99.90
34492;DHT22;20737;49.908;8.126;2023-03-26T02:47:30;7.10;99.90
34492;DHT22;20737;49.908;8.126;2023-03-26T02:49:58;7.10;99.90
34492;DHT22;20737;49.908;8.126;2023-03-26T02:52:26;7.10;99.90
34492;DHT22;20737;49.908;8.126;2023-03-26T02:54:52;7.10;99.90
34492;DHT22;20737;49.908;8.126;2023-03-26T02:57:19;7.20;99.90
34492;DHT22;20737;49.908;8.126;2023-03-26T02:59:46;7.10;99.90
34492;DHT22;20737;49.908;8.126;2023-03-26T03:02:16;7.20;99.90
34492;DHT22;20737;49.908;8.126;2023-03-26T03:04:43;7.20;99.90
34492;DHT22;20737;49.908;8.126;2023-03-26T03:07:10;7.20;99.90
34492;DHT22;20737;49.908;8.126;2023-03-26T03:09:39;7.30;99.90
34492;DHT22;20737;49.908;8.126;2023-03-26T03:12:06;7.30;99.90
34492;DHT22;20737;49.908;8.126;2023-03-26T03:14:33;7.30;99.90
34492;DHT22;20737;49.908;8.126;2023-03-26T03:16:59;7.30;99.90
34492;DHT22;20737;49.908;8.126;2023-03-26T03:19:27;7.30;99.90
34492;DHT22;20737;49.908;8.126;2023-03-26T03:21:54;7.30;99.90
34492;DHT22;20737;49.908;8.126;2023-03-26T03:24:21;7.30;99.90
34492;DHT22;20737;49.908;8.126;2023-03-26T03:26:48;7.30;99.90
34492;DHT22;20737;49.908;8.126;2023-03-26T03:29:19;7.30;99.90
34492;DHT22;20737;49.908;8.126;2023-03-26T03:31:46;7.30;99.90
34492;DHT22;20737;49.908;8.126;2023-03-26T03:34:12;7.30;99.90
34492;DHT22;20737;49.908;8.126;2023-03-26T03:36:41;7.30;99.90
34492;DHT22;20737;49.908;8.126;2023-03-26T03:39:07;7.30;99.90
34492;DHT22;20737;49.908;8.126;2023-03-26T03:41:34;7.20;99.90
34492;DHT22;20737;49.908;8.126;2023-03-26T03:44:01;7.30;99.90
34492;DHT22;20737;49.908;8.126;2023-03-26T03:46:27;7.30;99.90
34492;DHT22;20737;49.908;8.126;2023-03-26T03:48:54;7.30;99.90
34492;DHT22;20737;49.908;8.126;2023-03-26T03:51:21;7.30;99.90
34492;DHT22;20737;49.908;8.126;2023-03-26T03:53:49;7.30;99.90
34492;DHT22;20737;49.908;8.126;2023-03-26T03:56:17;7.30;99.90
34492;DHT22;20737;49.908;8.126;2023-03-26T03:58:48;7.30;99.90
34492;DHT22;20737;49.908;8.126;2023-03-26T04:01:16;7.40;99.90
34492;DHT22;20737;49.908;8.126;2023-03-26T04:03:43;7.40;99.90
34492;DHT22;20737;49.908;8.126;2023-03-26T04:06:11;7.40;99.90
34492;DHT22;20737;49.908;8.126;2023-03-26T04:08:38;7.40;99.90
34492;DHT22;20737;49.908;8.126;2023-03-26T04:11:06;7.40;99.90
34492;DHT22;20737;49.908;8.126;2023-03-26T04:13:33;7.40;99.90
34492;DHT22;20737;49.908;8.126;2023-03-26T04:16:00;7.40;99.90
34492;DHT22;20737;49.908;8.126;2023-03-26T04:18:26;7.40;99.90
34492;DHT22;20737;49.908;8.126;2023-03-26T04:20:54;7.40;99.90
34492;DHT22;20737;49.908;8.126;2023-03-26T04:23:21;7.30;99.90
34492;DHT22;20737;49.908;8.126;2023-03-26T04:25:51;7.30;99.90
34492;DHT22;20737;49.908;8.126;2023-03-26T04:28:26;7.30;99.90
34492;DHT22;20737;49.908;8.126;2023-03-26T04:30:55;7.30;99.90
34492;DHT22;20737;49.908;8.126;2023-03-26T04:33:25;7.30;99.90
34492;DHT22;20737;49.908;8.126;2023-03-26T04:35:53;7.20;99.90
34492;DHT22;20737;49.908;8.126;2023-03-26T04:38:21;7.20;99.90
34492;DHT22;20737;49.908;8.126;2023-03-26T04:40:48;7.20;99.90
34492;DHT22;20737;49.908;8.126;2023-03-26T04:43:15;7.20;99.90
34492;DHT22;20737;49.908;8.126;2023-03-26T04:45:44;7.20;99.90
34492;DHT22;20737;49.908;8.126;2023-03-26T04:48:12;7.20;99.90
34492;DHT22;20737;49.908;8.126;2023-03-26T04:50:40;7.20;99.90
34492;DHT22;20737;49.908;8.126;2023-03-26T04:53:08;7.20;99.90
34492;DHT22;20737;49.908;8.126;2023-03-26T04:55:40;7.20;99.90
34492;DHT22;20737;49.908;8.126;2023-03-26T04:58:08;7.20;99.90
34492;DHT22;20737;49.908;8.126;2023-03-26T05:00:38;7.20;99.90
34492;DHT22;20737;49.908;8.126;2023-03-26T05:03:09;7.20;99.90
34492;DHT22;20737;49.908;8.126;2023-03-26T05:05:36;7.20;99.90
34492;DHT22;20737;49.908;8.126;2023-03-26T05:08:03;7.30;99.90
34492;DHT22;20737;49.908;8.126;2023-03-26T05:10:30;7.30;99.90
34492;DHT22;20737;49.908;8.126;2023-03-26T05:12:57;7.40;99.90
34492;DHT22;20737;49.908;8.126;2023-03-26T05:15:23;7.40;99.90
34492;DHT22;20737;49.908;8.126;2023-03-26T05:17:50;7.30;99.90
34492;DHT22;20737;49.908;8.126;2023-03-26T05:20:20;7.30;99.90
34492;DHT22;20737;49.908;8.126;2023-03-26T05:22:48;7.30;99.90
34492;DHT22;20737;49.908;8.126;2023-03-26T05:25:16;7.30;99.90
34492;DHT22;20737;49.908;8.126;2023-03-26T05:27:43;7.30;99.90
34492;DHT22;20737;49.908;8.126;2023-03-26T05:30:14;7.40;99.90
34492;DHT22;20737;49.908;8.126;2023-03-26T05:32:41;7.40;99.90
34492;DHT22;20737;49.908;8.126;2023-03-26T05:35:08;7.40;99.90
34492;DHT22;20737;49.908;8.126;2023-03-26T05:37:37;7.40;99.90
34492;DHT22;20737;49.908;8.126;2023-03-26T05:40:05;7.40;99.90
34492;DHT22;20737;49.908;8.126;2023-03-26T05:42:37;7.40;99.90
34492;DHT22;20737;49.908;8.126;2023-03-26T05:45:05;7.40;99.90
34492;DHT22;20737;49.908;8.126;2023-03-26T05:47:32;7.40;99.90
34492;DHT22;20737;49.908;8.126;2023-03-26T05:49:59;7.40;99.90
34492;DHT22;20737;49.908;8.126;2023-03-26T05:52:26;7.40;99.90
34492;DHT22;20737;49.908;8.126;2023-03-26T05:54:54;7.50;99.90
34492;DHT22;20737;49.908;8.126;2023-03-26T05:57:21;7.50;99.90
34492;DHT22;20737;49.908;8.126;2023-03-26T05:59:48;7.50;99.90
34492;DHT22;20737;49.908;8.126;2023-03-26T06:02:15;7.50;99.90
34492;DHT22;20737;49.908;8.126;2023-03-26T06:04:41;7.50;99.90
34492;DHT22;20737;49.908;8.126;2023-03-26T06:07:10;7.60;99.90
34492;DHT22;20737;49.908;8.126;2023-03-26T06:09:37;7.60;99.90
34492;DHT22;20737;49.908;8.126;2023-03-26T06:12:08;7.50;99.90
34492;DHT22;20737;49.908;8.126;2023-03-26T06:14:36;7.60;99.90
34492;DHT22;20737;49.908;8.126;2023-03-26T06:17:03;7.50;99.90
34492;DHT22;20737;49.908;8.126;2023-03-26T06:19:29;7.60;99.90
34492;DHT22;20737;49.908;8.126;2023-03-26T06:21:56;7.60;99.90
34492;DHT22;20737;49.908;8.126;2023-03-26T06:24:23;7.70;99.90
34492;DHT22;20737;49.908;8.126;2023-03-26T06:26:50;7.60;99.90
34492;DHT22;20737;49.908;8.126;2023-03-26T06:29:18;7.60;99.90
34492;DHT22;20737;49.908;8.126;2023-03-26T06:31:45;7.70;99.90
34492;DHT22;20737;49.908;8.126;2023-03-26T06:34:12;7.60;99.90
34492;DHT22;20737;49.908;8.126;2023-03-26T06:36:38;7.70;99.90
34492;DHT22;20737;49.908;8.126;2023-03-26T06:39:05;7.60;99.90
34492;DHT22;20737;49.908;8.126;2023-03-26T06:41:32;7.70;99.90
34492;DHT22;20737;49.908;8.126;2023-03-26T06:43:59;7.70;99.90
34492;DHT22;20737;49.908;8.126;2023-03-26T06:46:27;7.70;99.90
34492;DHT22;20737;49.908;8.126;2023-03-26T06:48:54;7.70;99.90
34492;DHT22;20737;49.908;8.126;2023-03-26T06:51:21;7.70;99.90
34492;DHT22;20737;49.908;8.126;2023-03-26T06:53:47;7.70;99.90
34492;DHT22;20737;49.908;8.126;2023-03-26T06:56:14;7.70;99.90
34492;DHT22;20737;49.908;8.126;2023-03-26T06:58:41;7.70;99.90
34492;DHT22;20737;49.908;8.126;2023-03-26T07:01:08;7.70;99.90
34492;DHT22;20737;49.908;8.126;2023-03-26T07:03:36;7.80;99.90
34492;DHT22;20737;49.908;8.126;2023-03-26T07:06:03;7.80;99.90
34492;DHT22;20737;49.908;8.126;2023-03-26T07:08:30;7.80;99.90
34492;DHT22;20737;49.908;8.126;2023-03-26T07:10:57;7.90;99.90
34492;DHT22;20737;49.908;8.126;2023-03-26T07:13:23;7.90;99.90
34492;DHT22;20737;49.908;8.126;2023-03-26T07:15:50;7.90;99.90
34492;DHT22;20737;49.908;8.126;2023-03-26T07:18:17;7.90;99.90
34492;DHT22;20737;49.908;8.126;2023-03-26T07:20:45;7.90;99.90
34492;DHT22;20737;49.908;8.126;2023-03-26T07:23:13;7.90;99.90
34492;DHT22;20737;49.908;8.126;2023-03-26T07:25:45;7.90;99.90
34492;DHT22;20737;49.908;8.126;2023-03-26T07:28:19;8.00;99.90
34492;DHT22;20737;49.908;8.126;2023-03-26T07:30:58;7.90;99.90
34492;DHT22;20737;49.908;8.126;2023-03-26T07:33:30;7.90;99.90
34492;DHT22;20737;49.908;8.126;2023-03-26T07:36:08;8.00;99.90
34492;DHT22;20737;49.908;8.126;2023-03-26T07:38:50;8.00;99.90
34492;DHT22;20737;49.908;8.126;2023-03-26T07:41:24;8.10;99.90
34492;DHT22;20737;49.908;8.126;2023-03-26T07:43:57;8.10;99.90
34492;DHT22;20737;49.908;8.126;2023-03-26T07:46:28;8.10;99.90
34492;DHT22;20737;49.908;8.126;2023-03-26T07:48:57;8.10;99.90
34492;DHT22;20737;49.908;8.126;2023-03-26T07:51:26;8.10;99.90
34492;DHT22;20737;49.908;8.126;2023-03-26T07:53:56;8.20;99.90
34492;DHT22;20737;49.908;8.126;2023-03-26T07:56:28;8.20;99.90
34492;DHT22;20737;49.908;8.126;2023-03-26T07:59:09;8.20;99.90
34492;DHT22;20737;49.908;8.126;2023-03-26T08:01:47;8.20;99.90
34492;DHT22;20737;49.908;8.126;2023-03-26T08:04:42;8.40;99.90
34492;DHT22;20737;49.908;8.126;2023-03-26T08:07:22;8.50;99.90
34492;DHT22;20737;49.908;8.126;2023-03-26T08:10:00;8.60;99.90
34492;DHT22;20737;49.908;8.126;2023-03-26T08:12:37;8.60;99.90
34492;DHT22;20737;49.908;8.126;2023-03-26T08:15:13;8.50;99.90
34492;DHT22;20737;49.908;8.126;2023-03-26T08:17:47;8.60;99.90
34492;DHT22;20737;49.908;8.126;2023-03-26T08:20:25;8.60;99.90
34492;DHT22;20737;49.908;8.126;2023-03-26T08:23:02;8.50;99.90
34492;DHT22;20737;49.908;8.126;2023-03-26T08:25:33;8.50;99.90
34492;DHT22;20737;49.908;8.126;2023-03-26T08:28:25;8.50;99.90
34492;DHT22;20737;49.908;8.126;2023-03-26T08:30:55;8.50;99.90
34492;DHT22;20737;49.908;8.126;2023-03-26T08:33:25;8.60;99.90
34492;DHT22;20737;49.908;8.126;2023-03-26T08:35:52;8.60;99.90
34492;DHT22;20737;49.908;8.126;2023-03-26T08:38:20;8.70;99.90
34492;DHT22;20737;49.908;8.126;2023-03-26T08:41:05;8.60;99.90
34492;DHT22;20737;49.908;8.126;2023-03-26T08:43:55;8.80;99.90
34492;DHT22;20737;49.908;8.126;2023-03-26T08:46:36;8.80;99.90
34492;DHT22;20737;49.908;8.126;2023-03-26T08:49:27;8.80;99.90
34492;DHT22;20737;49.908;8.126;2023-03-26T08:55:09;8.90;99.90
34492;DHT22;20737;49.908;8.126;2023-03-26T09:03:57;9.00;99.90
34492;DHT22;20737;49.908;8.126;2023-03-26T09:06:49;9.10;99.90
34492;DHT22;20737;49.908;8.126;2023-03-26T09:13:08;9.10;99.90
34492;DHT22;20737;49.908;8.126;2023-03-26T09:16:05;9.30;99.90
34492;DHT22;20737;49.908;8.126;2023-03-26T09:25:21;9.90;99.90
34492;DHT22;20737;49.908;8.126;2023-03-26T09:28:15;9.90;99.90
34492;DHT22;20737;49.908;8.126;2023-03-26T09:31:11;9.90;99.90
34492;DHT22;20737;49.908;8.126;2023-03-26T09:33:53;9.80;99.90
34492;DHT22;20737;49.908;8.126;2023-03-26T09:36:46;9.70;99.90
34492;DHT22;20737;49.908;8.126;2023-03-26T09:39:34;9.50;99.90
34492;DHT22;20737;49.908;8.126;2023-03-26T09:42:08;9.40;99.90
34492;DHT22;20737;49.908;8.126;2023-03-26T09:45:20;9.50;99.90
34492;DHT22;20737;49.908;8.126;2023-03-26T09:48:15;9.60;99.90
34492;DHT22;20737;49.908;8.126;2023-03-26T09:50:54;10.40;99.90
34492;DHT22;20737;49.908;8.126;2023-03-26T09:53:44;11.40;99.90
34492;DHT22;20737;49.908;8.126;2023-03-26T09:56:24;11.90;99.90
34492;DHT22;20737;49.908;8.126;2023-03-26T09:59:04;12.80;99.90
34492;DHT22;20737;49.908;8.126;2023-03-26T10:01:40;16.00;99.90
34492;DHT22;20737;49.908;8.126;2023-03-26T10:07:39;19.80;99.90
34492;DHT22;20737;49.908;8.126;2023-03-26T10:10:15;19.00;99.90
34492;DHT22;20737;49.908;8.126;2023-03-26T10:12:45;17.90;99.90
34492;DHT22;20737;49.908;8.126;2023-03-26T10:15:25;17.30;99.90
34492;DHT22;20737;49.908;8.126;2023-03-26T10:18:08;15.70;99.90
34492;DHT22;20737;49.908;8.126;2023-03-26T10:20:51;15.10;99.90
34492;DHT22;20737;49.908;8.126;2023-03-26T10:23:44;14.30;99.90
34492;DHT22;20737;49.908;8.126;2023-03-26T10:29:20;13.30;99.90
34492;DHT22;20737;49.908;8.126;2023-03-26T10:31:54;13.10;99.90
34492;DHT22;20737;49.908;8.126;2023-03-26T10:34:47;13.20;99.90
34492;DHT22;20737;49.908;8.126;2023-03-26T10:37:20;13.00;99.90
34492;DHT22;20737;49.908;8.126;2023-03-26T10:40:08;12.50;99.90
34492;DHT22;20737;49.908;8.126;2023-03-26T10:43:07;12.00;99.90
34492;DHT22;20737;49.908;8.126;2023-03-26T10:45:55;11.80;99.90
34492;DHT22;20737;49.908;8.126;2023-03-26T10:48:35;11.40;99.90
34492;DHT22;20737;49.908;8.126;2023-03-26T10:51:20;11.20;99.90
34492;DHT22;20737;49.908;8.126;2023-03-26T10:53:50;11.00;99.90
34492;DHT22;20737;49.908;8.126;2023-03-26T10:56:24;10.90;99.90
34492;DHT22;20737;49.908;8.126;2023-03-26T10:58:53;11.00;99.90
34492;DHT22;20737;49.908;8.126;2023-03-26T11:01:30;11.50;99.90
34492;DHT22;20737;49.908;8.126;2023-03-26T11:04:07;13.00;99.90
34492;DHT22;20737;49.908;8.126;2023-03-26T11:06:44;14.90;99.90
34492;DHT22;20737;49.908;8.126;2023-03-26T11:09:15;16.90;99.90
34492;DHT22;20737;49.908;8.126;2023-03-26T11:11:49;18.40;99.90
34492;DHT22;20737;49.908;8.126;2023-03-26T11:14:22;18.30;99.90
34492;DHT22;20737;49.908;8.126;2023-03-26T11:16:59;18.30;99.90
34492;DHT22;20737;49.908;8.126;2023-03-26T11:19:30;20.20;99.90
34492;DHT22;20737;49.908;8.126;2023-03-26T11:22:06;21.40;99.90
34492;DHT22;20737;49.908;8.126;2023-03-26T11:25:00;22.30;98.10
34492;DHT22;20737;49.908;8.126;2023-03-26T11:27:41;19.60;99.90
34492;DHT22;20737;49.908;8.126;2023-03-26T11:30:20;17.60;99.90
34492;DHT22;20737;49.908;8.126;2023-03-26T11:32:53;18.00;99.90
34492;DHT22;20737;49.908;8.126;2023-03-26T11:35:24;20.40;99.90
34492;DHT22;20737;49.908;8.126;2023-03-26T11:37:55;21.80;98.80
34492;DHT22;20737;49.908;8.126;2023-03-26T11:40:28;22.60;96.10
34492;DHT22;20737;49.908;8.126;2023-03-26T11:42:59;20.80;94.80
34492;DHT22;20737;49.908;8.126;2023-03-26T11:45:31;19.20;99.90
34492;DHT22;20737;49.908;8.126;2023-03-26T11:48:02;17.50;99.90
34492;DHT22;20737;49.908;8.126;2023-03-26T11:50:32;16.50;99.90
34492;DHT22;20737;49.908;8.126;2023-03-26T11:53:10;15.20;99.90
34492;DHT22;20737;49.908;8.126;2023-03-26T11:55:38;14.60;99.90
34492;DHT22;20737;49.908;8.126;2023-03-26T11:58:21;14.40;99.90
34492;DHT22;20737;49.908;8.126;2023-03-26T12:00:51;15.50;99.90
34492;DHT22;20737;49.908;8.126;2023-03-26T12:03:18;17.20;99.90
34492;DHT22;20737;49.908;8.126;2023-03-26T12:05:48;17.50;99.90
34492;DHT22;20737;49.908;8.126;2023-03-26T12:08:20;18.60;99.90
34492;DHT22;20737;49.908;8.126;2023-03-26T12:10:50;17.90;99.90
34492;DHT22;20737;49.908;8.126;2023-03-26T12:13:32;16.70;99.90
34492;DHT22;20737;49.908;8.126;2023-03-26T12:16:05;15.80;99.90
34492;DHT22;20737;49.908;8.126;2023-03-26T12:18:33;16.90;99.90
34492;DHT22;20737;49.908;8.126;2023-03-26T12:21:03;17.00;99.90
34492;DHT22;20737;49.908;8.126;2023-03-26T12:23:40;18.60;99.90
34492;DHT22;20737;49.908;8.126;2023-03-26T12:26:15;20.50;99.10
34492;DHT22;20737;49.908;8.126;2023-03-26T12:28:46;22.30;94.60
34492;DHT22;20737;49.908;8.126;2023-03-26T12:31:14;21.40;90.90
34492;DHT22;20737;49.908;8.126;2023-03-26T12:33:45;20.60;91.70
34492;DHT22;20737;49.908;8.126;2023-03-26T12:36:20;20.50;93.70
34492;DHT22;20737;49.908;8.126;2023-03-26T12:38:51;20.70;90.30
34492;DHT22;20737;49.908;8.126;2023-03-26T12:41:19;20.60;89.60
34492;DHT22;20737;49.908;8.126;2023-03-26T12:43:48;21.00;90.20
34492;DHT22;20737;49.908;8.126;2023-03-26T12:46:24;21.20;88.10
34492;DHT22;20737;49.908;8.126;2023-03-26T12:48:52;20.80;89.00
34492;DHT22;20737;49.908;8.126;2023-03-26T12:51:29;21.50;83.70
34492;DHT22;20737;49.908;8.126;2023-03-26T12:56:55;22.30;83.70
34492;DHT22;20737;49.908;8.126;2023-03-26T12:59:39;22.40;82.40
34492;DHT22;20737;49.908;8.126;2023-03-26T13:02:26;22.20;82.60
34492;DHT22;20737;49.908;8.126;2023-03-26T13:05:06;23.30;74.80
34492;DHT22;20737;49.908;8.126;2023-03-26T13:07:50;22.40;79.50
34492;DHT22;20737;49.908;8.126;2023-03-26T13:10:33;20.00;81.60
34492;DHT22;20737;49.908;8.126;2023-03-26T13:13:10;17.40;90.40
34492;DHT22;20737;49.908;8.126;2023-03-26T13:15:43;15.60;93.80
34492;DHT22;20737;49.908;8.126;2023-03-26T13:18:21;15.70;98.10
34492;DHT22;20737;49.908;8.126;2023-03-26T13:20:58;16.90;96.40
34492;DHT22;20737;49.908;8.126;2023-03-26T13:23:34;17.60;96.10
34492;DHT22;20737;49.908;8.126;2023-03-26T13:26:17;18.30;96.00
34492;DHT22;20737;49.908;8.126;2023-03-26T13:28:52;17.90;94.40
34492;DHT22;20737;49.908;8.126;2023-03-26T13:31:24;17.10;94.70
34492;DHT22;20737;49.908;8.126;2023-03-26T13:33:58;16.40;96.40
34492;DHT22;20737;49.908;8.126;2023-03-26T13:36:30;15.70;99.00
34492;DHT22;20737;49.908;8.126;2023-03-26T13:39:07;15.70;99.90
34492;DHT22;20737;49.908;8.126;2023-03-26T13:41:48;15.30;99.90
34492;DHT22;20737;49.908;8.126;2023-03-26T13:44:24;16.20;99.90
34492;DHT22;20737;49.908;8.126;2023-03-26T13:46:59;16.80;96.80
34492;DHT22;20737;49.908;8.126;2023-03-26T13:49:31;18.20;96.00
34492;DHT22;20737;49.908;8.126;2023-03-26T13:52:06;19.10;92.50
34492;DHT22;20737;49.908;8.126;2023-03-26T13:54:35;19.50;93.30
34492;DHT22;20737;49.908;8.126;2023-03-26T13:57:12;20.20;91.80
34492;DHT22;20737;49.908;8.126;2023-03-26T13:59:43;19.40;90.90
34492;DHT22;20737;49.908;8.126;2023-03-26T14:02:18;18.10;92.80
34492;DHT22;20737;49.908;8.126;2023-03-26T14:04:52;17.40;94.10
34492;DHT22;20737;49.908;8.126;2023-03-26T14:07:24;16.90;94.30
34492;DHT22;20737;49.908;8.126;2023-03-26T14:09:57;16.50;95.70
34492;DHT22;20737;49.908;8.126;2023-03-26T14:12:39;15.70;96.80
34492;DHT22;20737;49.908;8.126;2023-03-26T14:15:13;16.00;97.10
34492;DHT22;20737;49.908;8.126;2023-03-26T14:17:46;15.90;96.00
34492;DHT22;20737;49.908;8.126;2023-03-26T14:20:39;15.80;97.10
34492;DHT22;20737;49.908;8.126;2023-03-26T14:23:32;15.70;97.10
34492;DHT22;20737;49.908;8.126;2023-03-26T14:26:14;15.30;97.70
34492;DHT22;20737;49.908;8.126;2023-03-26T14:31:43;18.10;93.70
34492;DHT22;20737;49.908;8.126;2023-03-26T14:34:22;18.10;91.70
34492;DHT22;20737;49.908;8.126;2023-03-26T14:37:28;17.70;92.30
34492;DHT22;20737;49.908;8.126;2023-03-26T14:40:28;15.90;93.70
34492;DHT22;20737;49.908;8.126;2023-03-26T14:43:15;14.90;95.20
34492;DHT22;20737;49.908;8.126;2023-03-26T14:45:59;14.40;96.70
34492;DHT22;20737;49.908;8.126;2023-03-26T14:48:48;14.20;98.90
34492;DHT22;20737;49.908;8.126;2023-03-26T14:51:27;14.20;99.30
34492;DHT22;20737;49.908;8.126;2023-03-26T14:54:00;14.00;99.60
34492;DHT22;20737;49.908;8.126;2023-03-26T15:06:10;14.90;99.90
34492;DHT22;20737;49.908;8.126;2023-03-26T15:09:25;16.90;99.20
34492;DHT22;20737;49.908;8.126;2023-03-26T15:12:00;16.90;95.20
34492;DHT22;20737;49.908;8.126;2023-03-26T15:14:42;15.80;96.40
34492;DHT22;20737;49.908;8.126;2023-03-26T15:17:59;15.20;97.10
34492;DHT22;20737;49.908;8.126;2023-03-26T15:20:59;14.30;98.90
34492;DHT22;20737;49.908;8.126;2023-03-26T15:27:12;13.30;99.90
34492;DHT22;20737;49.908;8.126;2023-03-26T15:30:04;13.00;99.90
34492;DHT22;20737;49.908;8.126;2023-03-26T15:36:08;10.10;99.90
34492;DHT22;20737;49.908;8.126;2023-03-26T15:39:17;9.40;99.90
34492;DHT22;20737;49.908;8.126;2023-03-26T15:41:54;9.20;99.90
34492;DHT22;20737;49.908;8.126;2023-03-26T15:44:31;9.10;99.90
34492;DHT22;20737;49.908;8.126;2023-03-26T15:50:24;9.00;99.90
34492;DHT22;20737;49.908;8.126;2023-03-26T15:53:05;9.00;99.90
34492;DHT22;20737;49.908;8.126;2023-03-26T15:55:40;9.00;99.90
34492;DHT22;20737;49.908;8.126;2023-03-26T15:58:11;9.00;99.90
34492;DHT22;20737;49.908;8.126;2023-03-26T16:00:47;8.90;99.90
34492;DHT22;20737;49.908;8.126;2023-03-26T16:03:25;8.70;99.90
34492;DHT22;20737;49.908;8.126;2023-03-26T16:06:11;8.80;99.90
34492;DHT22;20737;49.908;8.126;2023-03-26T16:08:47;9.10;99.90
34492;DHT22;20737;49.908;8.126;2023-03-26T16:11:43;9.60;99.90
34492;DHT22;20737;49.908;8.126;2023-03-26T16:14:17;9.70;99.90
34492;DHT22;20737;49.908;8.126;2023-03-26T16:16:52;9.90;99.90
34492;DHT22;20737;49.908;8.126;2023-03-26T16:19:45;10.10;99.90
34492;DHT22;20737;49.908;8.126;2023-03-26T16:22:19;10.30;99.90
34492;DHT22;20737;49.908;8.126;2023-03-26T16:25:23;10.40;99.90
34492;DHT22;20737;49.908;8.126;2023-03-26T16:31:17;10.20;99.90
34492;DHT22;20737;49.908;8.126;2023-03-26T16:33:50;10.10;99.90
34492;DHT22;20737;49.908;8.126;2023-03-26T16:36:29;9.90;99.90
34492;DHT22;20737;49.908;8.126;2023-03-26T16:39:17;9.90;99.90
34492;DHT22;20737;49.908;8.126;2023-03-26T16:42:00;9.80;99.90
34492;DHT22;20737;49.908;8.126;2023-03-26T16:44:35;9.70;99.90
34492;DHT22;20737;49.908;8.126;2023-03-26T16:47:12;9.60;99.90
34492;DHT22;20737;49.908;8.126;2023-03-26T16:49:52;9.60;99.90
34492;DHT22;20737;49.908;8.126;2023-03-26T16:52:34;9.50;99.90
34492;DHT22;20737;49.908;8.126;2023-03-26T16:55:17;9.50;99.90
34492;DHT22;20737;49.908;8.126;2023-03-26T16:57:52;9.50;99.90
34492;DHT22;20737;49.908;8.126;2023-03-26T17:00:28;9.50;99.90
34492;DHT22;20737;49.908;8.126;2023-03-26T17:03:05;9.60;99.90
34492;DHT22;20737;49.908;8.126;2023-03-26T17:05:48;9.60;99.90
34492;DHT22;20737;49.908;8.126;2023-03-26T17:08:22;9.50;99.90
34492;DHT22;20737;49.908;8.126;2023-03-26T17:10:58;9.50;99.90
34492;DHT22;20737;49.908;8.126;2023-03-26T17:13:38;9.40;99.90
34492;DHT22;20737;49.908;8.126;2023-03-26T17:16:13;9.40;99.90
34492;DHT22;20737;49.908;8.126;2023-03-26T17:18:46;9.40;99.90